Rogers City, MI

10:06 PM EDT on June 24, 2017 (GMT -0400)
Presque Isle County

Weather History for KPZQ - May, 2013

Change the Weather History Date:

Tuesday, May 7, 2013

  Actual Average (KAPN) Record (KAPN)
Temperature  
Mean Temperature 53 °F -  
Max Temperature 69 °F 61 °F 92 °F (1936)
Min Temperature 37 °F 35 °F 20 °F (1966)
Degree Days  
Heating Degree Days 12    
Growing Degree Days 3 (Base 50)    
Moisture  
Dew Point 33 °F    
Average Humidity 48    
Maximum Humidity 85    
Minimum Humidity 19    
Precipitation  
Precipitation 0.00 in - - ()
Sea Level Pressure  
Sea Level Pressure 30.09 in    
Wind  
Wind Speed 4 mph (East)    
Max Wind Speed 13 mph    
Max Gust Speed 17 mph    
Visibility 10 miles    
Events      
Averages and records for this station are not official NWS values.
T = Trace of Precipitation, MM = Missing Value Source: NWS Daily Summary

Daily Weather History Graph

Daily Weather History Graph

Search for Another Location

Airport or City:

Trip Planner

Search our weather history database for the weather conditions in past years. The results will help you decide how hot, cold, wet, or windy it might be!

Date:

Astronomy

May. 07, 2013 Rise Set
Actual Time 6:14 AM EDT 8:49 PM EDT
Civil Twilight 5:41 AM EDT 9:23 PM EDT
Nautical Twilight 4:59 AM EDT 10:05 PM EDT
Astronomical Twilight 4:11 AM EDT 10:54 PM EDT
Moon 4:54 AM EDT (5/7) 6:43 PM EDT (5/7)
Length of Visible Light 15h 42m
Length of Day
14h 35m
Waning Crescent, 5% of the Moon is Illuminated
May 7
Waning Crescent
May 9
New
May 18
First Quarter
May 25
Full
May 31
Last Quarter

Hourly Weather History & Observations

Time (EDT) Temp. Windchill Dew Point Humidity Pressure Visibility Wind Dir Wind Speed Gust Speed Precip Events Conditions
12:15 AM 43.9 °F 41.3 °F 39.7 °F 85% 30.07 in 10.0 mi South 4.6 mph - N/A   Clear
12:35 AM 44.8 °F 43.3 °F 39.2 °F 81% 30.07 in 10.0 mi SSE 3.5 mph - N/A   Clear
12:55 AM 49.8 °F - 36.9 °F 61% 30.07 in 10.0 mi South 6.9 mph - N/A   Clear
1:15 AM 48.9 °F - 34.9 °F 58% 30.08 in 10.0 mi South 4.6 mph - N/A   Clear
1:35 AM 49.1 °F - 34.9 °F 58% 30.07 in 10.0 mi South 4.6 mph - N/A   Clear
1:54 AM 48.2 °F - 33.1 °F 56% 30.07 in 10.0 mi South 4.6 mph - N/A   Clear
2:15 AM 47.3 °F - 34.0 °F 60% 30.07 in 10.0 mi South 3.5 mph - N/A   Clear
2:34 AM 47.1 °F - 31.6 °F 55% 30.07 in 10.0 mi South 4.6 mph - N/A   Clear
2:55 AM 52.2 °F - 28.0 °F 39% 30.07 in 10.0 mi South 5.8 mph - N/A   Clear
3:15 AM 51.3 °F - 27.0 °F 39% 30.06 in 10.0 mi South 3.5 mph - N/A   Clear
3:35 AM 44.2 °F 41.8 °F 31.5 °F 61% 30.07 in 10.0 mi North 4.6 mph - N/A   Clear
3:55 AM 42.4 °F - 33.1 °F 69% 30.07 in 10.0 mi Calm Calm - N/A   Clear
4:15 AM 41.0 °F - 33.3 °F 74% 30.07 in 10.0 mi Calm Calm - N/A   Clear
4:35 AM 39.6 °F - 33.3 °F 78% 30.07 in 10.0 mi Calm Calm - N/A   Clear
4:55 AM 37.6 °F - 32.2 °F 81% 30.07 in 10.0 mi Calm Calm - N/A   Clear
5:14 AM 38.5 °F - 33.6 °F 83% 30.07 in 10.0 mi Calm Calm - N/A   Clear
5:35 AM 38.5 °F - 33.1 °F 81% 30.07 in 10.0 mi Calm Calm - N/A   Clear
6:14 AM 38.8 °F - 33.4 °F 81% 30.08 in 10.0 mi Calm Calm - N/A   Clear
6:35 AM 38.5 °F - 33.4 °F 82% 30.08 in 10.0 mi Calm Calm - N/A   Clear
6:55 AM 38.8 °F - 33.4 °F 81% 30.09 in 10.0 mi Calm Calm - N/A   Clear
7:15 AM 41.4 °F - 36.5 °F 83% 30.10 in 10.0 mi Calm Calm - N/A   Clear
7:35 AM 45.9 °F - 39.9 °F 80% 30.11 in 10.0 mi Calm Calm - N/A   Clear
7:55 AM 49.1 °F - 40.6 °F 73% 30.11 in 7.0 mi ESE 3.5 mph - N/A   Clear
8:15 AM 50.9 °F - 41.5 °F 70% 30.12 in 7.0 mi Calm Calm - N/A   Clear
8:35 AM 53.2 °F - 40.3 °F 61% 30.13 in 7.0 mi Calm Calm - N/A   Clear
8:54 AM 54.7 °F - 39.4 °F 56% 30.13 in 10.0 mi Calm Calm - N/A   Clear
9:15 AM 54.9 °F - 37.8 °F 53% 30.13 in 10.0 mi Calm Calm - N/A   Clear
9:35 AM 53.8 °F - 40.3 °F 60% 30.13 in 10.0 mi Calm Calm - N/A   Clear
9:55 AM 55.9 °F - 37.8 °F 51% 30.14 in 10.0 mi NE 4.6 mph - N/A   Clear
10:15 AM 58.1 °F - 35.6 °F 43% 30.14 in 10.0 mi ENE 4.6 mph - N/A   Clear
10:35 AM 59.5 °F - 35.1 °F 40% 30.14 in 10.0 mi East 4.6 mph - N/A   Clear
10:55 AM 62.1 °F - 32.7 °F 33% 30.14 in 10.0 mi East 5.8 mph - N/A   Clear
11:15 AM 63.5 °F - 27.7 °F 26% 30.14 in 10.0 mi NE 5.8 mph - N/A   Clear
11:35 AM 63.9 °F - 27.7 °F 26% 30.14 in 10.0 mi ENE 5.8 mph - N/A   Clear
11:55 AM 65.3 °F - 26.1 °F 23% 30.13 in 10.0 mi NE 5.8 mph - N/A   Clear
12:15 PM 66.2 °F - 29.1 °F 25% 30.13 in 7.0 mi NE 5.8 mph - N/A   Clear
12:34 PM 66.7 °F - 27.9 °F 23% 30.13 in 10.0 mi ENE 6.9 mph - N/A   Clear
12:55 PM 67.8 °F - 24.1 °F 19% 30.12 in 7.0 mi ENE 8.1 mph - N/A   Clear
1:15 PM 68.0 °F - 28.4 °F 23% 30.11 in 10.0 mi NE 9.2 mph - N/A   Clear
1:35 PM 68.0 °F - 28.4 °F 23% 30.11 in 10.0 mi NE 10.4 mph - N/A   Clear
1:55 PM 68.0 °F - 25.5 °F 20% 30.10 in 10.0 mi ENE 10.4 mph - N/A   Clear
2:15 PM 69.3 °F - 28.4 °F 22% 30.10 in 10.0 mi ENE 11.5 mph - N/A   Clear
2:35 PM 69.6 °F - 28.8 °F 22% 30.10 in 10.0 mi ENE 9.2 mph - N/A   Clear
2:55 PM 68.9 °F - 27.5 °F 21% 30.10 in 10.0 mi ENE 11.5 mph 16.1 mph N/A   Clear
3:14 PM 67.5 °F - 30.2 °F 25% 30.09 in 7.0 mi ENE 11.5 mph 17.3 mph N/A   Clear
3:35 PM 66.6 °F - 28.2 °F 24% 30.09 in 10.0 mi ENE 12.7 mph 16.1 mph N/A   Clear
3:55 PM 66.7 °F - 29.8 °F 25% 30.08 in 10.0 mi ENE 12.7 mph 17.3 mph N/A   Clear
4:14 PM 67.1 °F - 30.0 °F 25% 30.08 in 10.0 mi East 11.5 mph 17.3 mph N/A   Clear
4:35 PM 68.5 °F - 29.8 °F 24% 30.07 in 10.0 mi East 11.5 mph 16.1 mph N/A   Clear
4:55 PM 68.9 °F - 30.6 °F 24% 30.07 in 10.0 mi East 9.2 mph - N/A   Clear
5:15 PM 68.2 °F - 29.7 °F 24% 30.07 in 10.0 mi ENE 10.4 mph - N/A   Clear
5:35 PM 68.2 °F - 28.4 °F 23% 30.06 in 10.0 mi ENE 10.4 mph - N/A   Clear
5:55 PM 67.5 °F - 31.5 °F 26% 30.06 in 10.0 mi ENE 9.2 mph - N/A   Clear
6:15 PM 66.6 °F - 31.5 °F 27% 30.06 in 10.0 mi ENE 8.1 mph - N/A   Clear
6:35 PM 65.5 °F - 32.5 °F 29% 30.06 in 10.0 mi ENE 6.9 mph - N/A   Clear
6:54 PM 62.6 °F - 31.8 °F 32% 30.06 in 10.0 mi ENE 8.1 mph - N/A   Clear
7:15 PM 62.4 °F - 32.4 °F 32% 30.06 in 10.0 mi East 6.9 mph - N/A   Clear
7:35 PM 63.1 °F - 32.0 °F 31% 30.07 in 7.0 mi ESE 3.5 mph - N/A   Clear
7:54 PM 63.0 °F - 32.2 °F 32% 30.07 in 10.0 mi East 6.9 mph - N/A   Clear
8:15 PM 60.6 °F - 32.0 °F 34% 30.06 in 7.0 mi East 8.1 mph - N/A   Clear
8:34 PM 57.9 °F - 33.1 °F 39% 30.06 in 10.0 mi East 5.8 mph - N/A   Clear
8:55 PM 55.8 °F - 34.0 °F 44% 30.06 in 10.0 mi East 5.8 mph - N/A   Clear
9:15 PM 53.1 °F - 34.9 °F 50% 30.07 in 10.0 mi Calm Calm - N/A   Clear
9:35 PM 54.0 °F - 34.7 °F 48% 30.07 in 10.0 mi Calm Calm - N/A   Clear
9:55 PM 57.6 °F - 35.6 °F 44% 30.07 in 10.0 mi SSE 4.6 mph - N/A   Clear
10:15 PM 51.6 °F - 37.4 °F 58% 30.07 in 10.0 mi Calm Calm - N/A   Clear
10:35 PM 50.0 °F - 37.2 °F 62% 30.07 in 10.0 mi Calm Calm - N/A   Clear
10:55 PM 47.8 °F - 37.2 °F 67% 30.07 in 10.0 mi Calm Calm - N/A   Clear
11:14 PM 47.7 °F - 37.6 °F 68% 30.07 in 10.0 mi Calm Calm - N/A   Clear
11:35 PM 47.5 °F - 37.6 °F 69% 30.07 in 10.0 mi Calm Calm - N/A   Clear
11:55 PM 46.9 °F - 38.5 °F 72% 30.07 in 10.0 mi Calm Calm - N/A   Clear